sensor_id;sensor_type;location;lat;lon;timestamp;temperature;humidity
16968;DHT22;64862;54.398;10.126;2023-08-08T00:02:38;14.60;72.50
16968;DHT22;64862;54.398;10.126;2023-08-08T00:12:41;14.50;71.00
16968;DHT22;64862;54.398;10.126;2023-08-08T00:22:43;14.40;70.30
16968;DHT22;64862;54.398;10.126;2023-08-08T00:32:46;14.40;68.00
16968;DHT22;64862;54.398;10.126;2023-08-08T00:42:48;14.40;65.40
16968;DHT22;64862;54.398;10.126;2023-08-08T00:52:52;14.40;64.80
16968;DHT22;64862;54.398;10.126;2023-08-08T01:02:55;14.40;65.50
16968;DHT22;64862;54.398;10.126;2023-08-08T01:13:02;14.40;66.70
16968;DHT22;64862;54.398;10.126;2023-08-08T01:23:10;14.30;66.90
16968;DHT22;64862;54.398;10.126;2023-08-08T01:33:16;14.30;67.20
16968;DHT22;64862;54.398;10.126;2023-08-08T01:43:20;14.20;67.50
16968;DHT22;64862;54.398;10.126;2023-08-08T01:53:23;14.20;67.80
16968;DHT22;64862;54.398;10.126;2023-08-08T02:03:25;14.20;67.60
16968;DHT22;64862;54.398;10.126;2023-08-08T02:13:29;14.30;66.70
16968;DHT22;64862;54.398;10.126;2023-08-08T02:23:32;14.30;67.00
16968;DHT22;64862;54.398;10.126;2023-08-08T02:33:35;14.20;67.40
16968;DHT22;64862;54.398;10.126;2023-08-08T02:43:37;14.20;68.30
16968;DHT22;64862;54.398;10.126;2023-08-08T02:53:40;14.10;68.90
16968;DHT22;64862;54.398;10.126;2023-08-08T03:03:42;14.10;69.80
16968;DHT22;64862;54.398;10.126;2023-08-08T03:13:47;14.10;70.80
16968;DHT22;64862;54.398;10.126;2023-08-08T03:23:50;14.10;72.30
16968;DHT22;64862;54.398;10.126;2023-08-08T03:33:53;14.10;74.10
16968;DHT22;64862;54.398;10.126;2023-08-08T03:43:57;14.10;74.30
16968;DHT22;64862;54.398;10.126;2023-08-08T03:54:01;14.20;74.70
16968;DHT22;64862;54.398;10.126;2023-08-08T04:04:04;14.30;75.90
16968;DHT22;64862;54.398;10.126;2023-08-08T04:14:08;14.40;76.20
16968;DHT22;64862;54.398;10.126;2023-08-08T04:24:10;14.40;75.40
16968;DHT22;64862;54.398;10.126;2023-08-08T04:34:15;14.40;75.50
16968;DHT22;64862;54.398;10.126;2023-08-08T04:44:18;14.60;76.00
16968;DHT22;64862;54.398;10.126;2023-08-08T04:54:22;14.60;78.10
16968;DHT22;64862;54.398;10.126;2023-08-08T05:04:24;14.60;78.60
16968;DHT22;64862;54.398;10.126;2023-08-08T05:14:27;14.70;78.80
16968;DHT22;64862;54.398;10.126;2023-08-08T05:24:29;14.90;78.30
16968;DHT22;64862;54.398;10.126;2023-08-08T05:34:32;14.90;78.40
16968;DHT22;64862;54.398;10.126;2023-08-08T05:44:34;14.80;78.40
16968;DHT22;64862;54.398;10.126;2023-08-08T05:54:37;15.00;78.40
16968;DHT22;64862;54.398;10.126;2023-08-08T06:04:40;15.20;79.10
16968;DHT22;64862;54.398;10.126;2023-08-08T06:14:43;15.20;79.20
16968;DHT22;64862;54.398;10.126;2023-08-08T06:24:46;15.10;82.40
16968;DHT22;64862;54.398;10.126;2023-08-08T06:34:49;14.70;84.40
16968;DHT22;64862;54.398;10.126;2023-08-08T06:44:51;14.50;85.40
16968;DHT22;64862;54.398;10.126;2023-08-08T06:54:54;14.70;86.30
16968;DHT22;64862;54.398;10.126;2023-08-08T07:04:56;14.70;86.80
16968;DHT22;64862;54.398;10.126;2023-08-08T07:14:59;14.80;87.80
16968;DHT22;64862;54.398;10.126;2023-08-08T07:25:02;15.20;88.60
16968;DHT22;64862;54.398;10.126;2023-08-08T07:35:07;15.50;85.70
16968;DHT22;64862;54.398;10.126;2023-08-08T07:45:10;15.60;85.70
16968;DHT22;64862;54.398;10.126;2023-08-08T07:55:13;15.00;88.40
16968;DHT22;64862;54.398;10.126;2023-08-08T08:05:15;15.20;88.40
16968;DHT22;64862;54.398;10.126;2023-08-08T08:15:18;15.10;87.70
16968;DHT22;64862;54.398;10.126;2023-08-08T08:25:20;15.50;88.80
16968;DHT22;64862;54.398;10.126;2023-08-08T08:35:23;15.80;87.40
16968;DHT22;64862;54.398;10.126;2023-08-08T08:45:26;15.30;85.30
16968;DHT22;64862;54.398;10.126;2023-08-08T08:55:32;14.90;85.90
16968;DHT22;64862;54.398;10.126;2023-08-08T09:05:35;15.50;85.60
16968;DHT22;64862;54.398;10.126;2023-08-08T09:15:40;15.30;86.50
16968;DHT22;64862;54.398;10.126;2023-08-08T09:25:42;15.30;84.60
16968;DHT22;64862;54.398;10.126;2023-08-08T09:35:45;15.60;84.30
16968;DHT22;64862;54.398;10.126;2023-08-08T09:45:49;15.30;84.80
16968;DHT22;64862;54.398;10.126;2023-08-08T09:55:53;14.80;85.20
16968;DHT22;64862;54.398;10.126;2023-08-08T10:05:56;15.30;86.80
16968;DHT22;64862;54.398;10.126;2023-08-08T10:16:04;15.80;86.50
16968;DHT22;64862;54.398;10.126;2023-08-08T10:26:18;16.30;84.10
16968;DHT22;64862;54.398;10.126;2023-08-08T10:36:22;16.40;80.90
16968;DHT22;64862;54.398;10.126;2023-08-08T10:46:27;16.90;78.50
16968;DHT22;64862;54.398;10.126;2023-08-08T10:56:31;16.70;77.80
16968;DHT22;64862;54.398;10.126;2023-08-08T11:06:34;15.30;83.70
16968;DHT22;64862;54.398;10.126;2023-08-08T11:16:38;15.20;88.30
16968;DHT22;64862;54.398;10.126;2023-08-08T11:26:43;15.70;85.00
16968;DHT22;64862;54.398;10.126;2023-08-08T11:36:47;15.80;82.80
16968;DHT22;64862;54.398;10.126;2023-08-08T11:46:49;15.50;84.70
16968;DHT22;64862;54.398;10.126;2023-08-08T11:56:52;14.20;87.40
16968;DHT22;64862;54.398;10.126;2023-08-08T12:07:03;14.60;91.30
16968;DHT22;64862;54.398;10.126;2023-08-08T12:17:09;15.10;90.70
16968;DHT22;64862;54.398;10.126;2023-08-08T12:27:10;15.20;90.00
16968;DHT22;64862;54.398;10.126;2023-08-08T12:37:14;14.70;88.90
16968;DHT22;64862;54.398;10.126;2023-08-08T12:47:18;15.20;88.10
16968;DHT22;64862;54.398;10.126;2023-08-08T12:57:23;16.00;88.40
16968;DHT22;64862;54.398;10.126;2023-08-08T13:07:25;15.70;82.50
16968;DHT22;64862;54.398;10.126;2023-08-08T13:17:29;14.80;87.80
16968;DHT22;64862;54.398;10.126;2023-08-08T13:27:32;14.60;87.90
16968;DHT22;64862;54.398;10.126;2023-08-08T13:37:35;14.60;87.70
16968;DHT22;64862;54.398;10.126;2023-08-08T13:47:37;14.60;88.40
16968;DHT22;64862;54.398;10.126;2023-08-08T13:57:40;14.70;85.70
16968;DHT22;64862;54.398;10.126;2023-08-08T14:07:42;14.90;85.10
16968;DHT22;64862;54.398;10.126;2023-08-08T14:17:45;15.10;83.40
16968;DHT22;64862;54.398;10.126;2023-08-08T14:27:48;15.40;84.90
16968;DHT22;64862;54.398;10.126;2023-08-08T14:37:52;15.90;84.50
16968;DHT22;64862;54.398;10.126;2023-08-08T14:47:54;15.70;81.30
16968;DHT22;64862;54.398;10.126;2023-08-08T14:57:58;15.20;81.50
16968;DHT22;64862;54.398;10.126;2023-08-08T15:08:00;15.20;83.60
16968;DHT22;64862;54.398;10.126;2023-08-08T15:18:04;15.10;84.10
16968;DHT22;64862;54.398;10.126;2023-08-08T15:28:06;14.80;82.50
16968;DHT22;64862;54.398;10.126;2023-08-08T15:38:09;14.80;83.20
16968;DHT22;64862;54.398;10.126;2023-08-08T15:48:12;15.20;83.00
16968;DHT22;64862;54.398;10.126;2023-08-08T15:58:15;15.60;80.20
16968;DHT22;64862;54.398;10.126;2023-08-08T16:08:18;15.70;80.60
16968;DHT22;64862;54.398;10.126;2023-08-08T16:18:22;15.80;77.70
16968;DHT22;64862;54.398;10.126;2023-08-08T16:28:24;15.80;77.10
16968;DHT22;64862;54.398;10.126;2023-08-08T16:38:29;15.90;74.00
16968;DHT22;64862;54.398;10.126;2023-08-08T16:48:32;16.10;72.00
16968;DHT22;64862;54.398;10.126;2023-08-08T16:58:37;15.40;74.20
16968;DHT22;64862;54.398;10.126;2023-08-08T17:08:40;15.70;74.50
16968;DHT22;64862;54.398;10.126;2023-08-08T17:18:43;16.40;72.30
16968;DHT22;64862;54.398;10.126;2023-08-08T17:28:45;17.00;67.50
16968;DHT22;64862;54.398;10.126;2023-08-08T17:38:49;16.10;72.20
16968;DHT22;64862;54.398;10.126;2023-08-08T17:48:51;15.90;74.00
16968;DHT22;64862;54.398;10.126;2023-08-08T17:58:55;15.60;75.80
16968;DHT22;64862;54.398;10.126;2023-08-08T18:08:57;15.20;78.50
16968;DHT22;64862;54.398;10.126;2023-08-08T18:19:02;15.00;78.40
16968;DHT22;64862;54.398;10.126;2023-08-08T18:29:06;14.70;78.60
16968;DHT22;64862;54.398;10.126;2023-08-08T18:39:10;14.50;78.50
16968;DHT22;64862;54.398;10.126;2023-08-08T18:49:12;14.50;80.60
16968;DHT22;64862;54.398;10.126;2023-08-08T18:59:15;14.50;81.40
16968;DHT22;64862;54.398;10.126;2023-08-08T19:09:17;14.30;81.00
16968;DHT22;64862;54.398;10.126;2023-08-08T19:19:22;14.30;82.10
16968;DHT22;64862;54.398;10.126;2023-08-08T19:29:24;14.20;81.40
16968;DHT22;64862;54.398;10.126;2023-08-08T19:39:27;14.30;83.00
16968;DHT22;64862;54.398;10.126;2023-08-08T19:49:29;14.30;84.70
16968;DHT22;64862;54.398;10.126;2023-08-08T19:59:35;14.00;85.70
16968;DHT22;64862;54.398;10.126;2023-08-08T20:09:38;13.80;87.10
16968;DHT22;64862;54.398;10.126;2023-08-08T20:19:41;13.70;86.80
16968;DHT22;64862;54.398;10.126;2023-08-08T20:29:43;13.60;85.80
16968;DHT22;64862;54.398;10.126;2023-08-08T20:39:46;13.60;86.40
16968;DHT22;64862;54.398;10.126;2023-08-08T20:49:48;13.40;85.00
16968;DHT22;64862;54.398;10.126;2023-08-08T20:59:52;13.40;86.50
16968;DHT22;64862;54.398;10.126;2023-08-08T21:09:54;13.50;86.20
16968;DHT22;64862;54.398;10.126;2023-08-08T21:19:57;13.40;86.50
16968;DHT22;64862;54.398;10.126;2023-08-08T21:30:01;13.40;88.30
16968;DHT22;64862;54.398;10.126;2023-08-08T21:40:09;13.40;89.00
16968;DHT22;64862;54.398;10.126;2023-08-08T21:50:11;13.30;88.50
16968;DHT22;64862;54.398;10.126;2023-08-08T22:00:16;13.40;89.20
16968;DHT22;64862;54.398;10.126;2023-08-08T22:10:18;13.40;89.00
16968;DHT22;64862;54.398;10.126;2023-08-08T22:20:22;13.30;88.60
16968;DHT22;64862;54.398;10.126;2023-08-08T22:30:24;13.30;88.70
16968;DHT22;64862;54.398;10.126;2023-08-08T22:40:28;13.20;88.40
16968;DHT22;64862;54.398;10.126;2023-08-08T22:50:30;13.10;88.20
16968;DHT22;64862;54.398;10.126;2023-08-08T23:00:34;13.10;88.30
16968;DHT22;64862;54.398;10.126;2023-08-08T23:10:36;13.30;88.10
16968;DHT22;64862;54.398;10.126;2023-08-08T23:20:40;13.20;88.20
16968;DHT22;64862;54.398;10.126;2023-08-08T23:30:42;13.10;88.90
16968;DHT22;64862;54.398;10.126;2023-08-08T23:40:45;13.30;88.40
16968;DHT22;64862;54.398;10.126;2023-08-08T23:50:47;13.30;88.70
